createdAt,value
2019-05-12T00:01:29.747Z,58.60
2019-05-12T00:03:59.864Z,59.00
2019-05-12T00:06:29.985Z,58.50
2019-05-12T00:09:00.102Z,58.60
2019-05-12T00:11:30.349Z,59.10
2019-05-12T00:14:00.347Z,58.50
2019-05-12T00:16:30.459Z,59.00
2019-05-12T00:19:00.375Z,59.30
2019-05-12T00:21:30.492Z,59.20
2019-05-12T00:24:12.908Z,59.10
2019-05-12T00:26:43.635Z,59.40
2019-05-12T00:29:13.753Z,59.30
2019-05-12T00:31:44.077Z,59.40
2019-05-12T00:34:14.407Z,59.10
2019-05-12T00:36:44.532Z,59.30
2019-05-12T00:39:14.843Z,59.90
2019-05-12T00:41:44.963Z,59.50
2019-05-12T00:44:15.085Z,59.10
2019-05-12T00:46:45.410Z,59.80
2019-05-12T00:49:15.525Z,59.40
2019-05-12T00:51:45.851Z,58.60
2019-05-12T00:54:17.695Z,59.30
2019-05-12T00:56:48.258Z,59.30
2019-05-12T00:59:19.055Z,59.70
2019-05-12T01:01:49.604Z,60.30
2019-05-12T01:04:19.930Z,59.50
2019-05-12T01:06:51.978Z,59.30
2019-05-12T01:09:21.812Z,59.40
2019-05-12T01:11:51.925Z,59.30
2019-05-12T01:14:22.042Z,59.50
2019-05-12T01:16:52.164Z,59.60
2019-05-12T01:19:25.148Z,59.50
2019-05-12T01:21:55.275Z,59.60
2019-05-12T01:24:28.496Z,59.60
2019-05-12T01:26:58.583Z,59.60
2019-05-12T01:29:28.714Z,59.80
2019-05-12T01:32:00.577Z,59.80
2019-05-12T01:34:30.778Z,59.80
2019-05-12T01:37:19.337Z,59.70
2019-05-12T01:39:49.451Z,60.40
2019-05-12T01:42:19.586Z,60.50
2019-05-12T01:44:49.693Z,59.80
2019-05-12T01:47:20.011Z,59.70
2019-05-12T01:49:50.132Z,60.00
2019-05-12T01:52:20.250Z,60.00
2019-05-12T01:54:50.368Z,60.50
2019-05-12T01:57:20.495Z,59.90
2019-05-12T01:59:50.812Z,60.70
2019-05-12T02:02:21.138Z,60.20
2019-05-12T02:04:55.556Z,59.90
2019-05-12T02:07:27.925Z,60.00
2019-05-12T02:09:58.447Z,60.00
2019-05-12T02:12:28.821Z,60.30
2019-05-12T02:14:59.106Z,60.00
2019-05-12T02:17:29.222Z,60.00
2019-05-12T02:19:59.342Z,60.10
2019-05-12T02:22:29.461Z,60.10
2019-05-12T02:24:59.789Z,60.30
2019-05-12T02:27:30.739Z,60.00
2019-05-12T02:30:01.050Z,61.20
2019-05-12T02:32:43.495Z,61.10
2019-05-12T02:35:05.762Z,61.40
2019-05-12T02:37:35.766Z,61.20
2019-05-12T02:40:08.915Z,61.30
2019-05-12T02:42:39.018Z,61.00
2019-05-12T02:45:09.944Z,61.40
2019-05-12T02:47:40.075Z,61.30
2019-05-12T02:50:10.400Z,61.40
2019-05-12T02:52:44.129Z,61.90
2019-05-12T02:55:14.943Z,61.40
2019-05-12T02:57:46.489Z,61.40
2019-05-12T03:00:16.813Z,61.20
2019-05-12T03:02:49.808Z,61.20
2019-05-12T03:05:19.922Z,61.40
2019-05-12T03:07:50.860Z,61.40
2019-05-12T03:10:20.980Z,61.20
2019-05-12T03:12:51.097Z,61.30
2019-05-12T03:15:24.788Z,61.30
2019-05-12T03:17:54.623Z,61.40
2019-05-12T03:20:24.732Z,61.40
2019-05-12T03:22:55.488Z,61.50
2019-05-12T03:25:29.895Z,62.20
2019-05-12T03:27:57.547Z,61.50
2019-05-12T03:30:29.431Z,61.50
2019-05-12T03:32:59.218Z,61.70
2019-05-12T03:35:35.322Z,61.80
2019-05-12T03:38:04.077Z,61.70
2019-05-12T03:40:37.653Z,61.70
2019-05-12T03:43:05.425Z,61.80
2019-05-12T03:45:36.504Z,62.10
2019-05-12T03:48:07.100Z,62.20
2019-05-12T03:50:37.218Z,62.20
2019-05-12T03:53:10.810Z,62.40
2019-05-12T03:55:42.329Z,62.30
2019-05-12T03:58:10.650Z,62.40
2019-05-12T04:00:40.771Z,62.60
2019-05-12T04:03:10.891Z,62.80
2019-05-12T04:05:41.007Z,62.80
2019-05-12T04:08:11.125Z,62.90
2019-05-12T04:10:41.245Z,63.10
2019-05-12T04:13:14.752Z,63.20
2019-05-12T04:15:45.522Z,63.30
2019-05-12T04:18:16.380Z,63.30
2019-05-12T04:20:47.254Z,63.50
2019-05-12T04:23:17.375Z,63.70
2019-05-12T04:25:52.883Z,63.50
2019-05-12T04:28:19.252Z,63.90
2019-05-12T04:30:49.365Z,63.90
2019-05-12T04:33:19.490Z,64.00
2019-05-12T04:35:49.604Z,64.20
2019-05-12T04:38:19.723Z,64.20
2019-05-12T04:40:50.046Z,64.20
2019-05-12T04:43:20.168Z,64.40
2019-05-12T04:45:50.491Z,64.40
2019-05-12T04:48:21.587Z,64.60
2019-05-12T04:50:54.859Z,64.70
2019-05-12T04:53:25.129Z,64.90
2019-05-12T04:56:07.395Z,65.00
2019-05-12T04:58:27.037Z,65.10
2019-05-12T05:00:57.145Z,65.20
2019-05-12T05:03:27.271Z,65.20
2019-05-12T05:05:57.383Z,65.50
2019-05-12T05:08:27.712Z,65.40
2019-05-12T05:10:57.829Z,65.80
2019-05-12T05:13:28.161Z,65.70
2019-05-12T05:15:58.124Z,65.70
2019-05-12T05:18:28.184Z,65.90
2019-05-12T05:20:58.302Z,66.00
2019-05-12T05:23:28.421Z,66.00
2019-05-12T05:25:58.540Z,66.50
2019-05-12T05:28:28.660Z,67.30
2019-05-12T05:30:58.779Z,66.70
2019-05-12T05:33:28.898Z,67.30
2019-05-12T05:35:59.018Z,67.40
2019-05-12T05:38:29.061Z,67.70
2019-05-12T05:40:59.799Z,68.30
2019-05-12T05:43:30.811Z,68.30
2019-05-12T05:46:02.819Z,68.30
2019-05-12T05:48:35.075Z,68.40
2019-05-12T05:51:07.373Z,68.80
2019-05-12T05:53:35.795Z,69.00
2019-05-12T05:56:05.910Z,69.40
2019-05-12T05:58:40.120Z,69.10
2019-05-12T06:01:08.280Z,69.10
2019-05-12T06:03:38.725Z,69.40
2019-05-12T06:06:12.360Z,69.30
2019-05-12T06:08:40.601Z,69.10
2019-05-12T06:11:14.809Z,69.40
2019-05-12T06:13:44.335Z,69.70
2019-05-12T06:16:20.341Z,69.60
2019-05-12T06:18:45.789Z,69.50
2019-05-12T06:21:15.918Z,70.00
2019-05-12T06:23:46.027Z,69.80
2019-05-12T06:26:21.121Z,70.10
2019-05-12T06:28:47.645Z,69.90
2019-05-12T06:31:18.960Z,69.90
2019-05-12T06:33:53.630Z,70.10
2019-05-12T06:36:27.064Z,70.40
2019-05-12T06:38:54.935Z,70.20
2019-05-12T06:41:25.917Z,70.20
2019-05-12T06:43:56.401Z,70.40
2019-05-12T06:46:26.525Z,70.30
2019-05-12T06:49:00.884Z,70.60
2019-05-12T06:51:30.147Z,70.50
2019-05-12T06:54:00.811Z,70.10
2019-05-12T06:56:34.031Z,70.50
2019-05-12T06:59:09.987Z,70.20
2019-05-12T07:01:35.128Z,70.00
2019-05-12T07:04:08.688Z,69.00
2019-05-12T07:06:37.003Z,68.90
2019-05-12T07:09:09.806Z,68.90
2019-05-12T07:11:44.821Z,69.50
2019-05-12T07:14:18.875Z,68.80
2019-05-12T07:16:45.271Z,68.80
2019-05-12T07:19:22.496Z,68.70
2019-05-12T07:21:50.881Z,68.60
2019-05-12T07:24:19.934Z,68.40
2019-05-12T07:26:54.768Z,68.80
2019-05-12T07:29:23.718Z,68.50
2019-05-12T07:31:53.678Z,68.30
2019-05-12T07:34:27.897Z,68.30
2019-05-12T07:36:58.710Z,68.20
2019-05-12T07:39:30.467Z,67.50
2019-05-12T07:42:03.652Z,67.60
2019-05-12T07:44:39.894Z,67.60
2019-05-12T07:47:07.582Z,66.90
2019-05-12T07:49:38.713Z,66.50
2019-05-12T07:52:09.044Z,66.50
2019-05-12T07:54:39.607Z,66.70
2019-05-12T07:57:12.596Z,66.70
2019-05-12T07:59:43.667Z,66.40
2019-05-12T08:02:14.236Z,65.50
2019-05-12T08:04:44.776Z,65.70
2019-05-12T08:07:19.850Z,65.80
2019-05-12T08:09:46.640Z,65.70
2019-05-12T08:12:20.951Z,65.90
2019-05-12T08:14:48.306Z,64.80
2019-05-12T08:17:19.667Z,65.10
2019-05-12T08:19:50.186Z,65.70
2019-05-12T08:22:25.114Z,65.70
2019-05-12T08:24:53.727Z,65.80
2019-05-12T08:27:23.615Z,65.50
2019-05-12T08:30:01.099Z,65.50
2019-05-12T08:32:27.267Z,65.70
2019-05-12T08:34:57.044Z,65.90
2019-05-12T08:37:27.368Z,65.40
2019-05-12T08:40:03.448Z,65.10
2019-05-12T08:42:29.249Z,65.00
2019-05-12T08:44:59.378Z,65.30
2019-05-12T08:47:35.599Z,65.20
2019-05-12T08:50:01.243Z,65.10
2019-05-12T08:52:37.022Z,65.00
2019-05-12T08:55:04.249Z,65.10
2019-05-12T08:57:40.631Z,65.10
2019-05-12T09:00:08.572Z,65.20
2019-05-12T09:02:39.850Z,65.10
2019-05-12T09:05:10.765Z,65.00
2019-05-12T09:07:40.896Z,64.80
2019-05-12T09:10:11.206Z,64.50
2019-05-12T09:12:41.323Z,64.50
2019-05-12T09:15:13.429Z,64.70
2019-05-12T09:17:52.384Z,64.40
2019-05-12T09:20:14.961Z,64.40
2019-05-12T09:22:45.069Z,64.20
2019-05-12T09:25:15.245Z,64.50
2019-05-12T09:27:49.358Z,64.20
2019-05-12T09:30:20.145Z,64.30
2019-05-12T09:32:55.987Z,64.50
2019-05-12T09:35:28.677Z,64.90
2019-05-12T09:37:56.440Z,63.90
2019-05-12T09:40:26.763Z,64.00
2019-05-12T09:43:00.166Z,63.60
2019-05-12T09:45:28.642Z,64.20
2019-05-12T09:48:03.776Z,63.80
2019-05-12T09:50:30.726Z,61.90
2019-05-12T09:53:06.372Z,58.90
2019-05-12T09:55:34.325Z,57.80
2019-05-12T09:58:04.568Z,56.20
2019-05-12T10:00:36.295Z,56.80
2019-05-12T10:03:08.563Z,58.50
2019-05-12T10:05:41.103Z,58.90
2019-05-12T10:08:10.368Z,59.50
2019-05-12T10:10:43.655Z,59.90
2019-05-12T10:13:13.839Z,60.00
2019-05-12T10:15:44.610Z,60.00
2019-05-12T10:18:14.938Z,60.20
2019-05-12T10:20:44.994Z,60.20
2019-05-12T10:23:20.021Z,59.90
2019-05-12T10:25:46.726Z,60.50
2019-05-12T10:28:17.064Z,60.10
2019-05-12T10:30:52.343Z,60.10
2019-05-12T10:33:18.932Z,60.20
2019-05-12T10:35:49.049Z,60.30
2019-05-12T10:38:19.371Z,60.20
2019-05-12T10:40:49.492Z,60.60
2019-05-12T10:43:19.815Z,59.80
2019-05-12T10:45:49.935Z,60.10
2019-05-12T10:48:20.053Z,60.20
2019-05-12T10:50:50.175Z,60.30
2019-05-12T10:53:20.206Z,60.30
2019-05-12T10:55:50.410Z,59.80
2019-05-12T10:58:20.531Z,59.90
2019-05-12T11:00:50.871Z,60.20
2019-05-12T11:03:20.975Z,60.00
2019-05-12T11:05:54.612Z,60.20
2019-05-12T11:08:24.502Z,60.20
2019-05-12T11:10:59.309Z,60.00
2019-05-12T11:13:25.960Z,59.90
2019-05-12T11:15:56.073Z,59.80
2019-05-12T11:18:30.301Z,59.60
2019-05-12T11:20:58.162Z,59.70
2019-05-12T11:23:28.276Z,59.80
2019-05-12T11:25:58.400Z,59.60
2019-05-12T11:28:28.717Z,59.70
2019-05-12T11:30:58.838Z,59.50
2019-05-12T11:33:28.955Z,59.60
2019-05-12T11:35:59.282Z,59.20
2019-05-12T11:38:29.400Z,59.00
2019-05-12T11:40:59.523Z,58.30
2019-05-12T11:43:29.944Z,58.50
2019-05-12T11:46:00.370Z,58.20
2019-05-12T11:48:30.695Z,58.60
2019-05-12T11:51:00.814Z,58.60
2019-05-12T11:53:32.397Z,58.60
2019-05-12T11:56:07.421Z,58.40
2019-05-12T11:58:34.244Z,57.80
2019-05-12T12:01:08.260Z,58.30
2019-05-12T12:03:37.761Z,58.00
2019-05-12T12:06:07.878Z,56.90
2019-05-12T12:08:38.257Z,56.30
2019-05-12T12:11:10.428Z,57.20
2019-05-12T12:13:40.496Z,57.50
2019-05-12T12:16:11.465Z,57.70
2019-05-12T12:18:46.691Z,57.60
2019-05-12T12:21:14.238Z,57.50
2019-05-12T12:23:50.144Z,57.50
2019-05-12T12:26:30.357Z,57.20
2019-05-12T12:28:59.647Z,57.20
2019-05-12T12:31:37.307Z,57.40
2019-05-12T12:34:02.955Z,57.10
2019-05-12T12:36:34.198Z,56.40
2019-05-12T12:39:06.247Z,56.70
2019-05-12T12:41:36.376Z,56.50
2019-05-12T12:44:06.496Z,55.70
2019-05-12T12:46:36.622Z,50.60
2019-05-12T12:49:10.343Z,51.60
2019-05-12T12:51:38.904Z,49.60
2019-05-12T12:54:09.022Z,52.30
2019-05-12T12:56:39.347Z,53.20
2019-05-12T12:59:11.916Z,54.10
2019-05-12T13:01:44.219Z,54.30
2019-05-12T13:04:14.002Z,54.30
2019-05-12T13:06:44.328Z,54.80
2019-05-12T13:09:24.210Z,54.60
2019-05-12T13:11:46.469Z,54.90
2019-05-12T13:14:16.734Z,54.80
2019-05-12T13:16:49.544Z,54.70
2019-05-12T13:19:18.839Z,54.90
2019-05-12T13:21:49.021Z,55.00
2019-05-12T13:24:19.346Z,55.00
2019-05-12T13:26:49.579Z,54.90
2019-05-12T13:29:19.721Z,55.20
2019-05-12T13:31:49.833Z,54.50
2019-05-12T13:34:19.937Z,54.70
2019-05-12T13:36:50.056Z,54.80
2019-05-12T13:39:20.380Z,54.60
2019-05-12T13:41:55.540Z,54.00
2019-05-12T13:44:24.014Z,54.60
2019-05-12T13:46:58.533Z,54.60
2019-05-12T13:49:29.953Z,54.20
2019-05-12T13:51:57.531Z,53.10
2019-05-12T13:54:29.967Z,52.80
2019-05-12T13:57:03.749Z,53.50
2019-05-12T13:59:30.814Z,53.70
2019-05-12T14:02:03.162Z,53.50
2019-05-12T14:04:33.644Z,53.40
2019-05-12T14:07:04.080Z,53.20
2019-05-12T14:09:38.604Z,53.20
2019-05-12T14:12:08.724Z,52.80
2019-05-12T14:14:38.843Z,53.40
2019-05-12T14:17:08.962Z,53.70
2019-05-12T14:19:39.081Z,53.40
2019-05-12T14:22:15.567Z,53.00
2019-05-12T14:24:42.346Z,53.70
2019-05-12T14:27:12.637Z,53.50
2019-05-12T14:29:44.096Z,52.70
2019-05-12T14:32:17.423Z,52.60
2019-05-12T14:34:45.942Z,53.30
2019-05-12T14:37:17.651Z,53.20
2019-05-12T14:39:50.251Z,53.00
2019-05-12T14:42:19.574Z,53.00
2019-05-12T14:44:49.892Z,53.10
2019-05-12T14:47:27.926Z,53.30
2019-05-12T14:49:54.123Z,52.60
2019-05-12T14:52:23.744Z,53.00
2019-05-12T14:54:54.180Z,52.90
2019-05-12T14:57:29.273Z,52.70
2019-05-12T14:59:56.758Z,50.90
2019-05-12T15:02:29.426Z,51.60
2019-05-12T15:05:00.264Z,52.50
2019-05-12T15:07:30.185Z,51.40
2019-05-12T15:10:08.394Z,50.50
2019-05-12T15:12:34.729Z,50.20
2019-05-12T15:15:08.983Z,49.60
2019-05-12T15:17:40.085Z,50.80
2019-05-12T15:20:11.023Z,50.60
2019-05-12T15:22:45.246Z,51.00
2019-05-12T15:25:14.518Z,51.70
2019-05-12T15:27:48.148Z,51.60
2019-05-12T15:30:23.642Z,51.80
2019-05-12T15:32:48.380Z,51.60
2019-05-12T15:35:18.751Z,51.50
2019-05-12T15:37:51.969Z,50.60
2019-05-12T15:40:20.578Z,51.20
2019-05-12T15:42:55.059Z,52.20
2019-05-12T15:45:23.843Z,51.00
2019-05-12T15:47:54.220Z,50.30
2019-05-12T15:50:26.126Z,49.70
2019-05-12T15:52:56.315Z,49.30
2019-05-12T15:55:32.802Z,50.50
2019-05-12T15:57:58.174Z,50.50
2019-05-12T16:00:28.420Z,49.90
2019-05-12T16:02:58.617Z,50.20
2019-05-12T16:05:31.006Z,50.20
2019-05-12T16:08:00.620Z,49.70
2019-05-12T16:10:30.820Z,50.20
2019-05-12T16:13:00.936Z,50.40
2019-05-12T16:15:31.262Z,51.00
2019-05-12T16:18:05.733Z,50.70
2019-05-12T16:20:33.435Z,51.80
2019-05-12T16:23:04.225Z,50.80
2019-05-12T16:25:34.608Z,51.40
2019-05-12T16:28:07.590Z,51.50
2019-05-12T16:30:36.489Z,51.50
2019-05-12T16:33:06.600Z,50.80
2019-05-12T16:35:36.929Z,52.60
2019-05-12T16:38:17.306Z,52.30
2019-05-12T16:40:47.997Z,52.60
2019-05-12T16:43:14.257Z,52.30
2019-05-12T16:45:43.754Z,52.40
2019-05-12T16:48:28.596Z,52.60
2019-05-12T16:50:45.628Z,51.10
2019-05-12T16:53:21.856Z,51.80
2019-05-12T16:55:49.868Z,51.60
2019-05-12T16:58:26.056Z,52.60
2019-05-12T17:00:53.438Z,52.10
2019-05-12T17:03:23.774Z,53.80
2019-05-12T17:05:57.756Z,51.90
2019-05-12T17:08:27.316Z,52.80
2019-05-12T17:11:15.123Z,50.80
2019-05-12T17:13:29.191Z,52.40
2019-05-12T17:16:00.747Z,52.40
2019-05-12T17:18:30.870Z,52.60
2019-05-12T17:21:01.020Z,53.70
2019-05-12T17:23:31.310Z,52.70
2019-05-12T17:26:03.592Z,53.40
2019-05-12T17:28:34.310Z,52.70
2019-05-12T17:31:05.149Z,53.10
2019-05-12T17:33:35.265Z,53.50
2019-05-12T17:36:11.900Z,54.00
2019-05-12T17:38:37.143Z,52.90
2019-05-12T17:41:07.267Z,53.30
2019-05-12T17:43:39.957Z,53.90
2019-05-12T17:46:11.713Z,54.40
2019-05-12T17:48:42.741Z,54.20
2019-05-12T17:51:13.662Z,54.10
2019-05-12T17:53:44.208Z,54.10
2019-05-12T17:56:14.335Z,53.60
2019-05-12T17:58:47.335Z,54.30
2019-05-12T18:01:16.202Z,54.30
2019-05-12T18:03:50.469Z,54.50
2019-05-12T18:06:20.556Z,54.50
2019-05-12T18:08:50.451Z,54.30
2019-05-12T18:11:20.574Z,54.20
2019-05-12T18:14:01.385Z,54.90
2019-05-12T18:16:24.897Z,54.20
2019-05-12T18:18:54.618Z,54.50
2019-05-12T18:21:30.820Z,54.40
2019-05-12T18:24:00.414Z,54.70
2019-05-12T18:26:28.663Z,54.70
2019-05-12T18:29:04.192Z,54.80
2019-05-12T18:31:34.140Z,54.70
2019-05-12T18:34:04.984Z,55.30
2019-05-12T18:36:35.491Z,54.50
2019-05-12T18:39:11.549Z,54.70
2019-05-12T18:41:40.026Z,54.20
2019-05-12T18:44:10.143Z,54.40
2019-05-12T18:46:45.124Z,54.60
2019-05-12T18:49:15.626Z,54.10
2019-05-12T18:51:48.912Z,53.80
2019-05-12T18:54:15.740Z,54.40
2019-05-12T18:56:45.860Z,53.90
2019-05-12T18:59:16.464Z,53.80
2019-05-12T19:01:47.133Z,53.90
2019-05-12T19:04:17.449Z,53.90
2019-05-12T19:06:47.565Z,54.10
2019-05-12T19:09:17.889Z,53.80
2019-05-12T19:11:48.195Z,54.00
2019-05-12T19:14:18.355Z,54.30
2019-05-12T19:16:48.711Z,54.00
2019-05-12T19:19:20.066Z,54.20
2019-05-12T19:21:58.842Z,55.20
2019-05-12T19:24:22.295Z,54.60
2019-05-12T19:26:54.108Z,54.80
2019-05-12T19:29:24.311Z,55.00
2019-05-12T19:31:57.806Z,55.00
2019-05-12T19:34:26.544Z,54.70
2019-05-12T19:36:56.981Z,54.90
2019-05-12T19:39:27.308Z,54.90
2019-05-12T19:41:57.629Z,55.40
2019-05-12T19:44:30.693Z,54.50
2019-05-12T19:46:59.711Z,54.50
2019-05-12T19:49:45.990Z,55.20
2019-05-12T19:52:03.414Z,54.90
2019-05-12T19:54:36.124Z,55.10
2019-05-12T19:57:05.110Z,55.20
2019-05-12T19:59:35.224Z,55.00
2019-05-12T20:02:06.367Z,55.30
2019-05-12T20:04:42.166Z,54.80
2019-05-12T20:07:08.242Z,54.90
2019-05-12T20:09:38.362Z,54.90
2019-05-12T20:12:15.627Z,55.00
2019-05-12T20:14:40.442Z,55.00
2019-05-12T20:17:10.561Z,54.90
2019-05-12T20:19:43.468Z,55.10
2019-05-12T20:22:13.830Z,55.70
2019-05-12T20:24:44.468Z,55.50
2019-05-12T20:27:17.275Z,55.30
2019-05-12T20:29:46.687Z,55.20
2019-05-12T20:32:16.809Z,55.20
2019-05-12T20:34:51.793Z,55.20
2019-05-12T20:37:18.687Z,55.10
2019-05-12T20:39:51.101Z,55.40
2019-05-12T20:42:23.647Z,55.10
2019-05-12T20:45:00.698Z,55.40
2019-05-12T20:47:25.307Z,55.70
2019-05-12T20:49:55.422Z,55.30
2019-05-12T20:52:25.749Z,55.50
2019-05-12T20:54:59.729Z,55.70
2019-05-12T20:57:27.419Z,55.80
2019-05-12T20:59:58.117Z,55.40
2019-05-12T21:02:29.017Z,55.70
2019-05-12T21:05:00.942Z,55.40
2019-05-12T21:07:33.594Z,56.00
2019-05-12T21:10:04.082Z,55.80
2019-05-12T21:12:34.285Z,55.40
2019-05-12T21:15:13.741Z,55.70
2019-05-12T21:17:42.943Z,56.20
2019-05-12T21:20:11.753Z,56.00
2019-05-12T21:22:40.696Z,56.10
2019-05-12T21:25:12.672Z,55.70
2019-05-12T21:27:47.491Z,56.10
2019-05-12T21:30:15.602Z,56.30
2019-05-12T21:32:55.478Z,56.10
2019-05-12T21:35:22.214Z,56.00
2019-05-12T21:37:48.989Z,56.00
2019-05-12T21:40:24.139Z,55.80
2019-05-12T21:42:50.658Z,56.30
2019-05-12T21:45:26.489Z,56.30
2019-05-12T21:47:54.504Z,56.10
2019-05-12T21:50:32.551Z,56.10
2019-05-12T21:52:59.605Z,56.30
2019-05-12T21:55:28.013Z,56.30
2019-05-12T21:58:01.710Z,56.00
2019-05-12T22:00:34.904Z,56.90
2019-05-12T22:03:08.282Z,56.70
2019-05-12T22:05:50.625Z,55.90
2019-05-12T22:08:17.673Z,56.40
2019-05-12T22:10:43.726Z,56.40
2019-05-12T22:13:17.064Z,56.40
2019-05-12T22:15:45.762Z,56.40
2019-05-12T22:18:15.884Z,56.60
2019-05-12T22:20:46.385Z,56.70
2019-05-12T22:23:16.936Z,56.20
2019-05-12T22:25:49.162Z,56.30
2019-05-12T22:28:18.814Z,56.50
2019-05-12T22:30:48.935Z,56.20
2019-05-12T22:33:19.052Z,55.80
2019-05-12T22:36:01.854Z,56.30
2019-05-12T22:38:21.166Z,56.70
2019-05-12T22:40:56.120Z,55.90
2019-05-12T22:43:23.877Z,56.40
2019-05-12T22:45:54.770Z,56.00
2019-05-12T22:48:29.937Z,56.20
2019-05-12T22:50:57.259Z,55.90
2019-05-12T22:53:30.079Z,56.20
2019-05-12T22:56:05.115Z,56.60
2019-05-12T22:58:33.826Z,56.20
2019-05-12T23:01:06.540Z,56.30
2019-05-12T23:03:36.865Z,56.20
2019-05-12T23:06:20.201Z,56.60
2019-05-12T23:08:38.829Z,56.20
2019-05-12T23:11:10.092Z,56.30
2019-05-12T23:13:42.745Z,56.70
2019-05-12T23:16:14.017Z,56.30
2019-05-12T23:18:44.446Z,56.50
2019-05-12T23:21:17.454Z,56.60
2019-05-12T23:23:50.011Z,56.50
2019-05-12T23:26:18.179Z,56.40
2019-05-12T23:28:50.290Z,56.90
2019-05-12T23:31:25.841Z,56.50
2019-05-12T23:33:54.355Z,56.70
2019-05-12T23:36:35.813Z,56.90
2019-05-12T23:39:00.327Z,56.60
2019-05-12T23:41:29.559Z,56.90
2019-05-12T23:43:59.620Z,56.80
2019-05-12T23:46:31.287Z,56.70
2019-05-12T23:49:03.653Z,57.00
2019-05-12T23:51:34.108Z,56.80
2019-05-12T23:54:04.495Z,56.80
2019-05-12T23:56:34.763Z,56.90
2019-05-12T23:59:04.884Z,56.80
